sensor_id;sensor_type;location;lat;lon;timestamp;pressure;altitude;pressure_sealevel;temperature;humidity
25156;BME280;21913;52.456;13.634;2023-02-28T00:00:04;101720.47;;;10.82;64.68
25156;BME280;21913;52.456;13.634;2023-02-28T00:05:07;101718.78;;;10.82;64.62
25156;BME280;21913;52.456;13.634;2023-02-28T00:10:12;101723.97;;;10.82;64.62
25156;BME280;21913;52.456;13.634;2023-02-28T00:15:14;101715.28;;;10.82;64.68
25156;BME280;21913;52.456;13.634;2023-02-28T00:20:16;101712.69;;;10.82;64.67
25156;BME280;21913;52.456;13.634;2023-02-28T00:25:22;101703.25;;;10.82;64.63
25156;BME280;21913;52.456;13.634;2023-02-28T00:30:24;101709.31;;;10.83;64.69
25156;BME280;21913;52.456;13.634;2023-02-28T00:35:25;101706.66;;;10.81;64.63
25156;BME280;21913;52.456;13.634;2023-02-28T00:40:27;101704.94;;;10.82;64.67
25156;BME280;21913;52.456;13.634;2023-02-28T00:45:29;101711.81;;;10.81;64.69
25156;BME280;21913;52.456;13.634;2023-02-28T00:50:31;101716.13;;;10.80;64.66
25156;BME280;21913;52.456;13.634;2023-02-28T00:55:34;101708.38;;;10.80;64.60
25156;BME280;21913;52.456;13.634;2023-02-28T01:00:35;101713.53;;;10.80;64.59
25156;BME280;21913;52.456;13.634;2023-02-28T01:05:37;101716.19;;;10.82;64.46
25156;BME280;21913;52.456;13.634;2023-02-28T01:10:39;101723.91;;;10.80;64.51
25156;BME280;21913;52.456;13.634;2023-02-28T01:15:46;101708.44;;;10.82;64.56
25156;BME280;21913;52.456;13.634;2023-02-28T01:20:50;101719.59;;;10.81;64.56
25156;BME280;21913;52.456;13.634;2023-02-28T01:25:52;101711.81;;;10.79;64.70
25156;BME280;21913;52.456;13.634;2023-02-28T01:30:57;101712.66;;;10.80;64.46
25156;BME280;21913;52.456;13.634;2023-02-28T01:36:00;101711.81;;;10.81;64.50
25156;BME280;21913;52.456;13.634;2023-02-28T01:41:03;101709.22;;;10.79;64.57
25156;BME280;21913;52.456;13.634;2023-02-28T01:46:07;101712.66;;;10.80;64.44
25156;BME280;21913;52.456;13.634;2023-02-28T01:51:12;101704.91;;;10.80;64.33
25156;BME280;21913;52.456;13.634;2023-02-28T01:56:19;101716.97;;;10.79;64.55
25156;BME280;21913;52.456;13.634;2023-02-28T02:01:25;101708.34;;;10.79;64.59
25156;BME280;21913;52.456;13.634;2023-02-28T02:06:33;101704.03;;;10.79;64.35
25156;BME280;21913;52.456;13.634;2023-02-28T02:11:36;101704.03;;;10.79;64.40
25156;BME280;21913;52.456;13.634;2023-02-28T02:44:10;101691.06;;;10.78;64.25
25156;BME280;21913;52.456;13.634;2023-02-28T02:49:22;101693.69;;;10.79;64.36
25156;BME280;21913;52.456;13.634;2023-02-28T02:54:31;101693.69;;;10.79;64.28
25156;BME280;21913;52.456;13.634;2023-02-28T02:59:36;101696.22;;;10.78;64.37
25156;BME280;21913;52.456;13.634;2023-02-28T03:04:45;101699.69;;;10.78;64.34
25156;BME280;21913;52.456;13.634;2023-02-28T03:09:54;101697.09;;;10.78;64.38
25156;BME280;21913;52.456;13.634;2023-02-28T03:25:51;101697.09;;;10.78;64.21
25156;BME280;21913;52.456;13.634;2023-02-28T03:31:12;101701.41;;;10.78;64.21
25156;BME280;21913;52.456;13.634;2023-02-28T03:36:18;101710.94;;;10.79;64.30
25156;BME280;21913;52.456;13.634;2023-02-28T03:41:27;101708.31;;;10.77;64.30
25156;BME280;21913;52.456;13.634;2023-02-28T03:46:36;101704.88;;;10.78;64.16
25156;BME280;21913;52.456;13.634;2023-02-28T03:51:41;101714.34;;;10.78;64.22
25156;BME280;21913;52.456;13.634;2023-02-28T03:56:50;101705.75;;;10.79;64.12
25156;BME280;21913;52.456;13.634;2023-02-28T04:01:53;101698.81;;;10.78;64.05
25156;BME280;21913;52.456;13.634;2023-02-28T04:07:03;101696.22;;;10.78;64.23
25156;BME280;21913;52.456;13.634;2023-02-28T04:12:05;101699.69;;;10.78;64.10
25156;BME280;21913;52.456;13.634;2023-02-28T04:17:06;101700.53;;;10.77;64.02
25156;BME280;21913;52.456;13.634;2023-02-28T04:22:08;101703.13;;;10.77;63.99
25156;BME280;21913;52.456;13.634;2023-02-28T04:27:10;101701.41;;;10.78;64.13
25156;BME280;21913;52.456;13.634;2023-02-28T04:32:12;101702.25;;;10.77;63.86
25156;BME280;21913;52.456;13.634;2023-02-28T04:37:14;101698.78;;;10.76;63.94
25156;BME280;21913;52.456;13.634;2023-02-28T04:42:16;101704.84;;;10.77;64.20
25156;BME280;21913;52.456;13.634;2023-02-28T04:47:17;101706.56;;;10.76;63.95
25156;BME280;21913;52.456;13.634;2023-02-28T04:52:19;101704.84;;;10.77;64.05
25156;BME280;21913;52.456;13.634;2023-02-28T04:57:21;101710.91;;;10.77;63.91
25156;BME280;21913;52.456;13.634;2023-02-28T05:02:22;101704.84;;;10.77;63.84
25156;BME280;21913;52.456;13.634;2023-02-28T05:07:24;101702.19;;;10.75;63.88
25156;BME280;21913;52.456;13.634;2023-02-28T05:12:26;101706.56;;;10.76;63.86
25156;BME280;21913;52.456;13.634;2023-02-28T05:17:28;101705.66;;;10.76;63.85
25156;BME280;21913;52.456;13.634;2023-02-28T05:22:30;101708.25;;;10.76;63.90
25156;BME280;21913;52.456;13.634;2023-02-28T05:27:31;101716.00;;;10.76;63.90
25156;BME280;21913;52.456;13.634;2023-02-28T05:32:33;101713.41;;;10.76;63.73
25156;BME280;21913;52.456;13.634;2023-02-28T05:37:35;101716.84;;;10.75;63.82
25156;BME280;21913;52.456;13.634;2023-02-28T05:42:37;101718.59;;;10.76;63.80
25156;BME280;21913;52.456;13.634;2023-02-28T05:47:39;101727.22;;;10.75;63.54
25156;BME280;21913;52.456;13.634;2023-02-28T05:52:41;101727.22;;;10.75;63.73
25156;BME280;21913;52.456;13.634;2023-02-28T05:57:42;101727.22;;;10.75;63.72
25156;BME280;21913;52.456;13.634;2023-02-28T06:02:44;101728.94;;;10.74;63.73
25156;BME280;21913;52.456;13.634;2023-02-28T06:07:46;101731.50;;;10.74;63.56
25156;BME280;21913;52.456;13.634;2023-02-28T06:12:47;101727.22;;;10.75;63.60
25156;BME280;21913;52.456;13.634;2023-02-28T06:17:49;101737.56;;;10.75;63.44
25156;BME280;21913;52.456;13.634;2023-02-28T06:22:51;101733.25;;;10.75;63.68
25156;BME280;21913;52.456;13.634;2023-02-28T06:27:53;101748.75;;;10.74;63.67
25156;BME280;21913;52.456;13.634;2023-02-28T06:32:55;101738.41;;;10.74;63.39
25156;BME280;21913;52.456;13.634;2023-02-28T06:37:57;101741.00;;;10.74;63.56
25156;BME280;21913;52.456;13.634;2023-02-28T06:42:58;101747.91;;;10.75;63.68
25156;BME280;21913;52.456;13.634;2023-02-28T06:48:00;101747.91;;;10.75;63.45
25156;BME280;21913;52.456;13.634;2023-02-28T06:53:02;101750.47;;;10.73;63.41
25156;BME280;21913;52.456;13.634;2023-02-28T06:58:03;101753.06;;;10.73;63.46
25156;BME280;21913;52.456;13.634;2023-02-28T07:03:05;101754.78;;;10.73;63.47
25156;BME280;21913;52.456;13.634;2023-02-28T07:08:07;101759.13;;;10.74;63.63
25156;BME280;21913;52.456;13.634;2023-02-28T07:13:09;101762.56;;;10.73;63.33
25156;BME280;21913;52.456;13.634;2023-02-28T07:18:10;101769.47;;;10.74;63.39
25156;BME280;21913;52.456;13.634;2023-02-28T07:23:12;101769.47;;;10.74;63.40
25156;BME280;21913;52.456;13.634;2023-02-28T07:28:14;101772.91;;;10.73;63.40
25156;BME280;21913;52.456;13.634;2023-02-28T07:33:16;101778.09;;;10.73;63.32
25156;BME280;21913;52.456;13.634;2023-02-28T07:38:18;101773.75;;;10.72;63.34
25156;BME280;21913;52.456;13.634;2023-02-28T07:43:19;101780.66;;;10.73;63.41
25156;BME280;21913;52.456;13.634;2023-02-28T07:48:21;101789.28;;;10.72;63.32
25156;BME280;21913;52.456;13.634;2023-02-28T07:53:22;101785.84;;;10.73;63.38
25156;BME280;21913;52.456;13.634;2023-02-28T07:58:25;101785.84;;;10.73;63.49
25156;BME280;21913;52.456;13.634;2023-02-28T08:03:27;101791.91;;;10.73;63.37
25156;BME280;21913;52.456;13.634;2023-02-28T08:08:28;101788.44;;;10.73;63.51
25156;BME280;21913;52.456;13.634;2023-02-28T08:13:31;101791.06;;;10.74;63.28
25156;BME280;21913;52.456;13.634;2023-02-28T08:18:32;101784.97;;;10.72;63.39
25156;BME280;21913;52.456;13.634;2023-02-28T08:23:35;101792.78;;;10.74;63.27
25156;BME280;21913;52.456;13.634;2023-02-28T08:28:36;101782.38;;;10.72;63.12
25156;BME280;21913;52.456;13.634;2023-02-28T08:33:38;101791.00;;;10.71;62.81
25156;BME280;21913;52.456;13.634;2023-02-28T08:38:40;101785.53;;;10.61;58.93
25156;BME280;21913;52.456;13.634;2023-02-28T08:43:42;101788.91;;;10.60;57.77
25156;BME280;21913;52.456;13.634;2023-02-28T08:48:43;101786.41;;;10.61;57.66
25156;BME280;21913;52.456;13.634;2023-02-28T08:53:45;101784.72;;;10.63;58.26
25156;BME280;21913;52.456;13.634;2023-02-28T08:58:48;101787.34;;;10.65;58.63
25156;BME280;21913;52.456;13.634;2023-02-28T09:03:51;101783.09;;;10.67;58.91
25156;BME280;21913;52.456;13.634;2023-02-28T09:08:52;101783.09;;;10.67;59.31
25156;BME280;21913;52.456;13.634;2023-02-28T09:13:54;101780.53;;;10.68;59.53
25156;BME280;21913;52.456;13.634;2023-02-28T09:18:56;101777.94;;;10.68;59.71
25156;BME280;21913;52.456;13.634;2023-02-28T09:23:58;101781.41;;;10.69;60.03
25156;BME280;21913;52.456;13.634;2023-02-28T09:29:00;101781.41;;;10.69;60.21
25156;BME280;21913;52.456;13.634;2023-02-28T09:34:01;101783.16;;;10.70;60.46
25156;BME280;21913;52.456;13.634;2023-02-28T09:39:03;101777.16;;;10.71;60.50
25156;BME280;21913;52.456;13.634;2023-02-28T09:44:06;101772.88;;;10.71;60.67
25156;BME280;21913;52.456;13.634;2023-02-28T09:49:18;101785.84;;;10.73;60.75
25156;BME280;21913;52.456;13.634;2023-02-28T09:54:23;101775.47;;;10.71;60.85
25156;BME280;21913;52.456;13.634;2023-02-28T10:04:54;101773.78;;;10.73;60.95
25156;BME280;21913;52.456;13.634;2023-02-28T10:09:59;101772.03;;;10.72;61.16
25156;BME280;21913;52.456;13.634;2023-02-28T10:15:03;101767.72;;;10.73;61.28
25156;BME280;21913;52.456;13.634;2023-02-28T10:20:11;101771.19;;;10.73;61.25
25156;BME280;21913;52.456;13.634;2023-02-28T10:25:29;101775.50;;;10.73;61.39
25156;BME280;21913;52.456;13.634;2023-02-28T10:30:30;101768.56;;;10.72;61.37
25156;BME280;21913;52.456;13.634;2023-02-28T10:35:32;101772.03;;;10.72;61.55
25156;BME280;21913;52.456;13.634;2023-02-28T10:40:35;101775.50;;;10.73;61.59
25156;BME280;21913;52.456;13.634;2023-02-28T10:45:37;101776.28;;;10.70;61.20
25156;BME280;21913;52.456;13.634;2023-02-28T11:06:26;101762.41;;;10.68;59.57
25156;BME280;21913;52.456;13.634;2023-02-28T11:11:30;101771.06;;;10.69;59.83
25156;BME280;21913;52.456;13.634;2023-02-28T11:16:42;101768.47;;;10.69;60.14
25156;BME280;21913;52.456;13.634;2023-02-28T11:21:52;101766.75;;;10.69;60.06
25156;BME280;21913;52.456;13.634;2023-02-28T11:26:55;101771.09;;;10.70;60.27
25156;BME280;21913;52.456;13.634;2023-02-28T11:32:26;101758.16;;;10.70;60.29
25156;BME280;21913;52.456;13.634;2023-02-28T11:37:31;101759.88;;;10.70;60.55
25156;BME280;21913;52.456;13.634;2023-02-28T11:42:50;101751.25;;;10.71;60.56
25156;BME280;21913;52.456;13.634;2023-02-28T11:53:23;101743.50;;;10.71;60.78
25156;BME280;21913;52.456;13.634;2023-02-28T11:58:41;101736.63;;;10.71;61.01
25156;BME280;21913;52.456;13.634;2023-02-28T12:20:39;101730.53;;;10.71;60.96
25156;BME280;21913;52.456;13.634;2023-02-28T12:26:00;101721.09;;;10.71;61.14
25156;BME280;21913;52.456;13.634;2023-02-28T12:31:12;101708.09;;;10.70;61.15
25156;BME280;21913;52.456;13.634;2023-02-28T12:36:18;101708.09;;;10.70;61.05
25156;BME280;21913;52.456;13.634;2023-02-28T12:46:38;101702.97;;;10.71;61.24
25156;BME280;21913;52.456;13.634;2023-02-28T12:51:44;101694.31;;;10.71;61.23
25156;BME280;21913;52.456;13.634;2023-02-28T12:56:54;101686.53;;;10.71;61.28
25156;BME280;21913;52.456;13.634;2023-02-28T13:12:48;101669.31;;;10.71;61.45
25156;BME280;21913;52.456;13.634;2023-02-28T13:17:52;101673.59;;;10.71;61.37
25156;BME280;21913;52.456;13.634;2023-02-28T13:22:55;101667.53;;;10.70;61.40
25156;BME280;21913;52.456;13.634;2023-02-28T13:27:57;101657.19;;;10.70;61.57
25156;BME280;21913;52.456;13.634;2023-02-28T13:33:30;101664.16;;;10.71;61.37
25156;BME280;21913;52.456;13.634;2023-02-28T13:38:35;101661.56;;;10.71;61.60
25156;BME280;21913;52.456;13.634;2023-02-28T13:44:06;101660.66;;;10.71;61.30
25156;BME280;21913;52.456;13.634;2023-02-28T14:00:34;101636.75;;;10.46;53.81
25156;BME280;21913;52.456;13.634;2023-02-28T14:05:38;101648.94;;;10.50;54.15
25156;BME280;21913;52.456;13.634;2023-02-28T14:11:04;101636.94;;;10.54;54.70
25156;BME280;21913;52.456;13.634;2023-02-28T14:16:08;101643.88;;;10.55;55.25
25156;BME280;21913;52.456;13.634;2023-02-28T14:21:16;101643.91;;;10.57;55.77
25156;BME280;21913;52.456;13.634;2023-02-28T14:26:47;101628.41;;;10.58;56.10
25156;BME280;21913;52.456;13.634;2023-02-28T14:32:21;101630.16;;;10.59;56.39
25156;BME280;21913;52.456;13.634;2023-02-28T14:37:33;101612.91;;;10.60;56.62
25156;BME280;21913;52.456;13.634;2023-02-28T14:42:37;101628.44;;;10.60;56.96
25156;BME280;21913;52.456;13.634;2023-02-28T14:47:41;101618.19;;;10.63;57.18
25156;BME280;21913;52.456;13.634;2023-02-28T14:52:43;101603.47;;;10.60;57.37
25156;BME280;21913;52.456;13.634;2023-02-28T14:57:52;101609.53;;;10.62;57.36
25156;BME280;21913;52.456;13.634;2023-02-28T15:02:56;101614.75;;;10.64;57.64
25156;BME280;21913;52.456;13.634;2023-02-28T15:13:14;101612.16;;;10.64;57.93
25156;BME280;21913;52.456;13.634;2023-02-28T15:23:24;101611.28;;;10.63;58.26
25156;BME280;21913;52.456;13.634;2023-02-28T15:28:26;101613.91;;;10.65;58.24
25156;BME280;21913;52.456;13.634;2023-02-28T15:33:30;101615.63;;;10.64;58.47
25156;BME280;21913;52.456;13.634;2023-02-28T15:38:35;101619.94;;;10.64;58.49
25156;BME280;21913;52.456;13.634;2023-02-28T15:43:37;101613.03;;;10.64;58.74
25156;BME280;21913;52.456;13.634;2023-02-28T15:53:56;101611.31;;;10.65;58.77
25156;BME280;21913;52.456;13.634;2023-02-28T15:59:05;101622.53;;;10.65;58.90
25156;BME280;21913;52.456;13.634;2023-02-28T16:04:15;101619.09;;;10.65;59.00
25156;BME280;21913;52.456;13.634;2023-02-28T16:09:17;101635.47;;;10.65;59.01
25156;BME280;21913;52.456;13.634;2023-02-28T16:14:21;101625.97;;;10.64;58.96
25156;BME280;21913;52.456;13.634;2023-02-28T16:19:23;101630.28;;;10.64;59.09
25156;BME280;21913;52.456;13.634;2023-02-28T16:24:24;101633.75;;;10.64;59.17
25156;BME280;21913;52.456;13.634;2023-02-28T16:29:29;101631.16;;;10.64;59.17
25156;BME280;21913;52.456;13.634;2023-02-28T16:34:32;101630.28;;;10.64;59.17
25156;BME280;21913;52.456;13.634;2023-02-28T16:39:33;101635.47;;;10.64;59.23
25156;BME280;21913;52.456;13.634;2023-02-28T16:44:58;101634.59;;;10.63;59.44
25156;BME280;21913;52.456;13.634;2023-02-28T16:49:59;101645.81;;;10.64;59.41
25156;BME280;21913;52.456;13.634;2023-02-28T16:55:01;101640.63;;;10.64;59.57
25156;BME280;21913;52.456;13.634;2023-02-28T17:00:04;101643.22;;;10.64;59.43
25156;BME280;21913;52.456;13.634;2023-02-28T17:05:06;101648.41;;;10.64;59.51
25156;BME280;21913;52.456;13.634;2023-02-28T17:10:21;101648.44;;;10.65;59.42
25156;BME280;21913;52.456;13.634;2023-02-28T17:15:22;101648.41;;;10.64;59.66
25156;BME280;21913;52.456;13.634;2023-02-28T17:20:24;101644.94;;;10.63;59.53
25156;BME280;21913;52.456;13.634;2023-02-28T17:25:26;101644.94;;;10.63;59.51
25156;BME280;21913;52.456;13.634;2023-02-28T17:30:28;101637.16;;;10.62;59.59
25156;BME280;21913;52.456;13.634;2023-02-28T17:35:29;101645.78;;;10.62;59.69
25156;BME280;21913;52.456;13.634;2023-02-28T17:40:31;101657.00;;;10.63;59.68
25156;BME280;21913;52.456;13.634;2023-02-28T17:45:33;101651.84;;;10.63;59.58
25156;BME280;21913;52.456;13.634;2023-02-28T17:50:34;101656.13;;;10.62;59.76
25156;BME280;21913;52.456;13.634;2023-02-28T17:55:36;101664.78;;;10.63;59.79
25156;BME280;21913;52.456;13.634;2023-02-28T18:00:38;101664.78;;;10.63;59.68
25156;BME280;21913;52.456;13.634;2023-02-28T18:05:40;101676.00;;;10.63;59.97
25156;BME280;21913;52.456;13.634;2023-02-28T18:10:42;101675.13;;;10.63;59.74
25156;BME280;21913;52.456;13.634;2023-02-28T18:15:43;101679.47;;;10.64;59.77
25156;BME280;21913;52.456;13.634;2023-02-28T18:20:45;101682.50;;;10.49;56.96
25156;BME280;21913;52.456;13.634;2023-02-28T18:25:48;101685.78;;;10.42;54.98
25156;BME280;21913;52.456;13.634;2023-02-28T18:30:50;101681.75;;;10.51;55.01
25156;BME280;21913;52.456;13.634;2023-02-28T18:35:55;101676.25;;;10.72;55.08
25156;BME280;21913;52.456;13.634;2023-02-28T18:40:59;101681.97;;;10.94;54.60
25156;BME280;21913;52.456;13.634;2023-02-28T18:46:06;101685.84;;;11.13;54.69
25156;BME280;21913;52.456;13.634;2023-02-28T18:51:09;101671.56;;;11.30;54.60
25156;BME280;21913;52.456;13.634;2023-02-28T18:56:13;101676.22;;;11.43;54.97
25156;BME280;21913;52.456;13.634;2023-02-28T19:01:19;101680.75;;;11.53;54.74
25156;BME280;21913;52.456;13.634;2023-02-28T19:06:21;101677.47;;;11.61;54.59
25156;BME280;21913;52.456;13.634;2023-02-28T19:11:23;101687.09;;;11.66;54.80
25156;BME280;21913;52.456;13.634;2023-02-28T19:16:25;101687.16;;;11.69;53.46
25156;BME280;21913;52.456;13.634;2023-02-28T19:21:27;101682.78;;;11.68;52.53
25156;BME280;21913;52.456;13.634;2023-02-28T19:26:29;101670.78;;;11.72;52.68
25156;BME280;21913;52.456;13.634;2023-02-28T19:31:31;101674.34;;;11.77;52.87
25156;BME280;21913;52.456;13.634;2023-02-28T19:36:33;101678.72;;;11.79;53.12
25156;BME280;21913;52.456;13.634;2023-02-28T19:41:37;101692.66;;;11.83;53.25
25156;BME280;21913;52.456;13.634;2023-02-28T19:46:39;101689.22;;;11.84;53.39
25156;BME280;21913;52.456;13.634;2023-02-28T19:51:40;101688.38;;;11.85;53.55
25156;BME280;21913;52.456;13.634;2023-02-28T19:56:42;101689.28;;;11.86;53.55
25156;BME280;21913;52.456;13.634;2023-02-28T20:01:44;101690.16;;;11.88;53.83
25156;BME280;21913;52.456;13.634;2023-02-28T20:06:45;101689.34;;;11.90;53.96
25156;BME280;21913;52.456;13.634;2023-02-28T20:11:47;101691.94;;;11.90;54.02
25156;BME280;21913;52.456;13.634;2023-02-28T20:16:49;101695.44;;;11.91;54.06
25156;BME280;21913;52.456;13.634;2023-02-28T20:21:50;101681.56;;;11.90;54.22
25156;BME280;21913;52.456;13.634;2023-02-28T20:26:52;101685.09;;;11.92;54.28
25156;BME280;21913;52.456;13.634;2023-02-28T20:31:55;101679.91;;;11.94;54.18
25156;BME280;21913;52.456;13.634;2023-02-28T20:36:57;101679.91;;;11.94;54.36
25156;BME280;21913;52.456;13.634;2023-02-28T20:41:58;101681.66;;;11.95;54.46
25156;BME280;21913;52.456;13.634;2023-02-28T20:47:00;101683.38;;;11.93;54.44
25156;BME280;21913;52.456;13.634;2023-02-28T20:52:02;101690.28;;;11.92;54.45
25156;BME280;21913;52.456;13.634;2023-02-28T20:57:03;101696.31;;;11.91;54.63
25156;BME280;21913;52.456;13.634;2023-02-28T21:02:06;101705.75;;;11.89;54.72
25156;BME280;21913;52.456;13.634;2023-02-28T21:07:07;101702.28;;;11.89;54.68
25156;BME280;21913;52.456;13.634;2023-02-28T21:12:09;101698.81;;;11.87;54.83
25156;BME280;21913;52.456;13.634;2023-02-28T21:17:11;101703.94;;;11.85;54.85
25156;BME280;21913;52.456;13.634;2023-02-28T21:22:12;101704.78;;;11.84;54.93
25156;BME280;21913;52.456;13.634;2023-02-28T21:27:14;101711.66;;;11.82;55.00
25156;BME280;21913;52.456;13.634;2023-02-28T21:32:15;101711.66;;;11.82;55.16
25156;BME280;21913;52.456;13.634;2023-02-28T21:37:17;101716.78;;;11.80;55.20
25156;BME280;21913;52.456;13.634;2023-02-28T21:42:19;101705.53;;;11.80;55.20
25156;BME280;21913;52.456;13.634;2023-02-28T21:47:20;101712.41;;;11.78;55.24
25156;BME280;21913;52.456;13.634;2023-02-28T21:52:22;101708.94;;;11.77;55.10
25156;BME280;21913;52.456;13.634;2023-02-28T21:57:24;101705.47;;;11.77;55.37
25156;BME280;21913;52.456;13.634;2023-02-28T22:02:25;101704.50;;;11.73;55.36
25156;BME280;21913;52.456;13.634;2023-02-28T22:07:29;101706.22;;;11.73;55.39
25156;BME280;21913;52.456;13.634;2023-02-28T22:12:30;101699.31;;;11.72;55.40
25156;BME280;21913;52.456;13.634;2023-02-28T22:17:32;101690.63;;;11.70;55.56
25156;BME280;21913;52.456;13.634;2023-02-28T22:22:34;101687.16;;;11.69;55.57
25156;BME280;21913;52.456;13.634;2023-02-28T22:27:35;101683.66;;;11.67;55.52
25156;BME280;21913;52.456;13.634;2023-02-28T22:32:37;101702.63;;;11.66;55.51
25156;BME280;21913;52.456;13.634;2023-02-28T22:37:39;101710.41;;;11.65;55.60
25156;BME280;21913;52.456;13.634;2023-02-28T22:42:40;101712.06;;;11.63;55.78
25156;BME280;21913;52.456;13.634;2023-02-28T22:47:42;101715.50;;;11.62;55.73
25156;BME280;21913;52.456;13.634;2023-02-28T22:52:43;101712.00;;;11.59;55.76
25156;BME280;21913;52.456;13.634;2023-02-28T22:57:45;101716.31;;;11.59;55.86
25156;BME280;21913;52.456;13.634;2023-02-28T23:02:47;101715.44;;;11.58;56.00
25156;BME280;21913;52.456;13.634;2023-02-28T23:07:49;101713.66;;;11.56;55.87
25156;BME280;21913;52.456;13.634;2023-02-28T23:12:50;101717.97;;;11.57;55.83
25156;BME280;21913;52.456;13.634;2023-02-28T23:17:52;101718.81;;;11.54;55.98
25156;BME280;21913;52.456;13.634;2023-02-28T23:22:53;101730.84;;;11.52;56.11
25156;BME280;21913;52.456;13.634;2023-02-28T23:27:55;101731.69;;;11.51;56.16
25156;BME280;21913;52.456;13.634;2023-02-28T23:32:56;101720.44;;;11.51;56.02
25156;BME280;21913;52.456;13.634;2023-02-28T23:37:58;101722.16;;;11.50;56.19
25156;BME280;21913;52.456;13.634;2023-02-28T23:43:00;101724.72;;;11.49;56.09
25156;BME280;21913;52.456;13.634;2023-02-28T23:48:02;101722.09;;;11.47;56.01
25156;BME280;21913;52.456;13.634;2023-02-28T23:53:04;101709.97;;;11.46;56.06
25156;BME280;21913;52.456;13.634;2023-02-28T23:58:05;101709.97;;;11.46;56.23
